createdAt,value
2018-05-16T00:01:42.964Z,7.07
2018-05-16T00:04:12.044Z,7.75
2018-05-16T00:06:40.936Z,6.75
2018-05-16T00:09:09.959Z,7.22
2018-05-16T00:11:38.851Z,7.00
2018-05-16T00:14:07.739Z,6.10
2018-05-16T00:16:36.631Z,6.10
2018-05-16T00:19:05.818Z,5.93
2018-05-16T00:21:34.711Z,7.25
2018-05-16T00:24:03.595Z,5.95
2018-05-16T00:26:32.699Z,6.00
2018-05-16T00:29:01.587Z,5.43
2018-05-16T00:31:30.479Z,6.32
2018-05-16T00:33:59.570Z,5.35
2018-05-16T00:36:28.463Z,6.70
2018-05-16T00:38:57.350Z,6.35
2018-05-16T00:41:26.235Z,6.12
2018-05-16T00:43:55.127Z,6.80
2018-05-16T00:46:24.018Z,13.88
2018-05-16T00:48:52.915Z,14.15
2018-05-16T00:51:27.768Z,11.57
2018-05-16T00:53:56.667Z,9.05
2018-05-16T00:56:25.558Z,8.00
2018-05-16T00:58:54.449Z,6.40
2018-05-16T01:01:23.338Z,6.82
2018-05-16T01:03:52.278Z,6.72
2018-05-16T01:06:21.159Z,6.12
2018-05-16T01:08:50.049Z,5.78
2018-05-16T01:11:18.937Z,5.28
2018-05-16T01:13:50.610Z,5.65
2018-05-16T01:16:19.503Z,6.75
2018-05-16T01:18:48.403Z,5.55
2018-05-16T01:21:17.602Z,5.70
2018-05-16T01:23:46.483Z,5.75
2018-05-16T01:26:15.367Z,5.97
2018-05-16T01:28:44.271Z,6.22
2018-05-16T01:31:13.164Z,5.87
2018-05-16T01:33:42.055Z,5.90
2018-05-16T01:36:10.944Z,5.60
2018-05-16T01:38:40.143Z,5.90
2018-05-16T01:41:09.041Z,5.97
2018-05-16T01:43:37.927Z,6.18
2018-05-16T01:46:06.815Z,5.25
2018-05-16T01:48:35.703Z,7.07
2018-05-16T01:51:04.599Z,5.62
2018-05-16T01:53:33.494Z,6.60
2018-05-16T01:56:02.380Z,6.85
2018-05-16T01:58:31.275Z,7.30
2018-05-16T02:01:00.371Z,6.95
2018-05-16T02:03:29.446Z,8.00
2018-05-16T02:05:58.339Z,6.45
2018-05-16T02:08:27.227Z,7.03
2018-05-16T02:10:56.110Z,6.70
2018-05-16T02:13:24.995Z,6.85
2018-05-16T02:15:53.891Z,8.10
2018-05-16T02:18:23.187Z,6.37
2018-05-16T02:20:52.075Z,6.10
2018-05-16T02:23:20.967Z,6.87
2018-05-16T02:25:50.095Z,7.60
2018-05-16T02:28:18.983Z,7.50
2018-05-16T02:30:47.867Z,6.70
2018-05-16T02:33:16.767Z,6.55
2018-05-16T02:35:45.888Z,6.15
2018-05-16T02:38:14.783Z,7.05
2018-05-16T02:40:43.667Z,7.18
2018-05-16T02:43:12.559Z,7.18
2018-05-16T02:45:41.465Z,7.10
2018-05-16T02:48:10.355Z,8.10
2018-05-16T02:50:39.239Z,7.07
2018-05-16T02:53:08.163Z,6.80
2018-05-16T02:55:37.171Z,7.95
2018-05-16T02:58:06.062Z,6.93
2018-05-16T03:00:34.952Z,7.30
2018-05-16T03:03:03.830Z,5.85
2018-05-16T03:05:32.740Z,6.70
2018-05-16T03:08:01.632Z,6.25
2018-05-16T03:10:30.543Z,7.15
2018-05-16T03:12:59.427Z,6.10
2018-05-16T03:15:28.315Z,6.43
2018-05-16T03:17:57.199Z,6.15
2018-05-16T03:20:26.097Z,7.18
2018-05-16T03:22:55.195Z,6.85
2018-05-16T03:25:24.090Z,6.72
2018-05-16T03:27:52.975Z,6.85
2018-05-16T03:30:22.210Z,7.28
2018-05-16T03:32:51.095Z,6.30
2018-05-16T03:35:20.003Z,7.47
2018-05-16T03:37:48.895Z,6.65
2018-05-16T03:40:17.788Z,6.95
2018-05-16T03:42:46.671Z,7.03
2018-05-16T03:45:15.564Z,6.30
2018-05-16T03:47:44.447Z,6.85
2018-05-16T03:50:13.335Z,7.03
2018-05-16T03:52:42.223Z,7.07
2018-05-16T03:55:11.107Z,6.40
2018-05-16T03:57:45.723Z,5.62
2018-05-16T04:00:20.642Z,6.57
2018-05-16T04:02:55.259Z,6.18
2018-05-16T04:05:24.567Z,6.55
2018-05-16T04:07:53.463Z,5.82
2018-05-16T04:10:22.352Z,6.40
2018-05-16T04:12:51.250Z,6.62
2018-05-16T04:15:20.135Z,5.65
2018-05-16T04:17:49.635Z,6.75
2018-05-16T04:20:18.518Z,5.95
2018-05-16T04:22:47.410Z,6.57
2018-05-16T04:25:16.303Z,5.80
2018-05-16T04:27:45.200Z,6.12
2018-05-16T04:30:14.089Z,5.53
2018-05-16T04:32:43.025Z,7.75
2018-05-16T04:35:11.935Z,6.25
2018-05-16T04:37:40.829Z,6.57
2018-05-16T04:40:09.770Z,6.12
2018-05-16T04:42:38.835Z,5.85
2018-05-16T04:45:07.715Z,6.47
2018-05-16T04:47:36.609Z,6.35
2018-05-16T04:50:05.604Z,5.85
2018-05-16T04:52:34.495Z,6.35
2018-05-16T04:55:03.382Z,6.37
2018-05-16T04:57:32.275Z,7.65
2018-05-16T05:00:01.384Z,5.80
2018-05-16T05:02:30.276Z,7.25
2018-05-16T05:04:59.199Z,7.00
2018-05-16T05:07:28.083Z,6.47
2018-05-16T05:09:56.979Z,29.15
2018-05-16T05:12:26.008Z,15.07
2018-05-16T05:14:54.904Z,9.60
2018-05-16T05:17:23.799Z,7.75
2018-05-16T05:19:52.683Z,9.20
2018-05-16T05:22:21.596Z,9.02
2018-05-16T05:24:50.714Z,7.50
2018-05-16T05:27:19.602Z,6.18
2018-05-16T05:29:48.497Z,7.03
2018-05-16T05:32:17.387Z,6.57
2018-05-16T05:34:46.285Z,6.40
2018-05-16T05:37:16.079Z,4.75
2018-05-16T05:39:44.963Z,5.12
2018-05-16T05:42:13.848Z,4.37
2018-05-16T05:44:42.791Z,5.05
2018-05-16T05:47:11.683Z,7.60
2018-05-16T05:49:40.575Z,4.95
2018-05-16T05:52:09.467Z,12.98
2018-05-16T05:54:38.607Z,4.55
2018-05-16T05:57:07.523Z,4.40
2018-05-16T05:59:36.419Z,5.40
2018-05-16T06:02:05.361Z,4.75
2018-05-16T06:04:34.250Z,5.20
2018-05-16T06:07:03.189Z,4.60
2018-05-16T06:09:32.064Z,4.82
2018-05-16T06:12:00.955Z,5.10
2018-05-16T06:14:29.851Z,2.92
2018-05-16T06:16:58.822Z,3.22
2018-05-16T06:19:27.953Z,2.50
2018-05-16T06:21:56.850Z,3.28
2018-05-16T06:24:25.752Z,2.92
2018-05-16T06:26:54.635Z,1.95
2018-05-16T06:29:23.913Z,2.45
2018-05-16T06:31:52.807Z,2.70
2018-05-16T06:34:21.699Z,3.50
2018-05-16T06:36:50.593Z,2.87
2018-05-16T06:39:19.579Z,2.92
2018-05-16T06:41:48.408Z,5.35
2018-05-16T06:44:17.298Z,6.05
2018-05-16T06:46:46.216Z,4.85
2018-05-16T06:49:15.106Z,3.83
2018-05-16T06:51:43.995Z,5.10
2018-05-16T06:54:12.893Z,4.30
2018-05-16T06:56:41.794Z,4.82
2018-05-16T06:59:10.691Z,4.50
2018-05-16T07:01:39.695Z,4.22
2018-05-16T07:04:08.700Z,4.65
2018-05-16T07:06:37.532Z,4.68
2018-05-16T07:09:06.439Z,3.92
2018-05-16T07:11:35.346Z,4.57
2018-05-16T07:14:04.246Z,4.40
2018-05-16T07:16:34.303Z,3.55
2018-05-16T07:19:03.193Z,3.12
2018-05-16T07:21:32.083Z,3.50
2018-05-16T07:24:00.971Z,4.35
2018-05-16T07:26:29.863Z,4.22
2018-05-16T07:28:58.748Z,3.08
2018-05-16T07:31:27.631Z,3.70
2018-05-16T07:33:56.577Z,3.00
2018-05-16T07:36:25.467Z,2.85
2018-05-16T07:38:54.363Z,2.75
2018-05-16T07:41:23.256Z,3.45
2018-05-16T07:43:52.139Z,3.05
2018-05-16T07:46:21.331Z,2.67
2018-05-16T07:48:50.220Z,4.03
2018-05-16T07:51:19.200Z,2.30
2018-05-16T07:53:48.024Z,3.35
2018-05-16T07:56:16.911Z,2.33
2018-05-16T07:58:45.799Z,3.15
2018-05-16T08:01:14.691Z,3.60
2018-05-16T08:03:43.804Z,3.42
2018-05-16T08:06:12.698Z,3.58
2018-05-16T08:08:41.594Z,3.28
2018-05-16T08:11:10.482Z,3.42
2018-05-16T08:13:39.367Z,3.80
2018-05-16T08:16:08.259Z,2.90
2018-05-16T08:18:37.286Z,4.43
2018-05-16T08:21:06.246Z,3.35
2018-05-16T08:23:35.137Z,3.47
2018-05-16T08:26:04.031Z,3.55
2018-05-16T08:28:32.981Z,2.85
2018-05-16T08:31:02.076Z,3.58
2018-05-16T08:33:30.930Z,3.60
2018-05-16T08:35:59.826Z,2.83
2018-05-16T08:38:28.718Z,2.80
2018-05-16T08:40:57.791Z,3.90
2018-05-16T08:43:26.696Z,3.10
2018-05-16T08:45:55.639Z,3.40
2018-05-16T08:48:24.532Z,3.62
2018-05-16T08:50:53.419Z,3.50
2018-05-16T08:53:22.363Z,3.33
2018-05-16T08:55:51.265Z,3.80
2018-05-16T08:58:20.174Z,3.97
2018-05-16T09:00:49.061Z,3.33
2018-05-16T09:03:17.946Z,3.40
2018-05-16T09:05:46.861Z,5.40
2018-05-16T09:08:15.757Z,3.87
2018-05-16T09:10:44.678Z,2.60
2018-05-16T09:13:13.588Z,3.27
2018-05-16T09:15:42.666Z,3.67
2018-05-16T09:18:11.573Z,3.67
2018-05-16T09:20:40.482Z,3.80
2018-05-16T09:23:09.387Z,3.30
2018-05-16T09:25:38.306Z,2.83
2018-05-16T09:28:07.330Z,3.60
2018-05-16T09:30:36.167Z,3.33
2018-05-16T09:33:05.055Z,2.70
2018-05-16T09:35:33.950Z,3.47
2018-05-16T09:38:02.843Z,3.37
2018-05-16T09:40:31.735Z,4.00
2018-05-16T09:43:00.627Z,3.03
2018-05-16T09:45:29.764Z,3.20
2018-05-16T09:47:58.663Z,2.63
2018-05-16T09:50:27.553Z,2.83
2018-05-16T09:52:56.442Z,3.57
2018-05-16T09:55:25.343Z,2.60
2018-05-16T09:57:54.403Z,3.00
2018-05-16T10:00:29.004Z,2.90
2018-05-16T10:02:57.891Z,2.70
2018-05-16T10:05:26.778Z,2.40
2018-05-16T10:07:56.091Z,2.67
2018-05-16T10:10:24.986Z,2.60
2018-05-16T10:12:53.879Z,3.13
2018-05-16T10:15:22.776Z,3.27
2018-05-16T10:17:51.685Z,2.70
2018-05-16T10:20:20.621Z,2.90
2018-05-16T10:22:49.498Z,2.60
2018-05-16T10:25:18.583Z,3.10
2018-05-16T10:27:47.475Z,2.97
2018-05-16T10:30:16.422Z,3.00
2018-05-16T10:32:45.518Z,2.20
2018-05-16T10:35:14.550Z,2.90
2018-05-16T10:37:43.448Z,2.43
2018-05-16T10:40:12.375Z,2.93
2018-05-16T10:42:41.280Z,2.60
2018-05-16T10:45:10.172Z,2.60
2018-05-16T10:47:39.058Z,2.47
2018-05-16T10:50:08.295Z,2.53
2018-05-16T10:52:37.189Z,3.00
2018-05-16T10:55:06.111Z,2.70
2018-05-16T10:57:35.167Z,2.83
2018-05-16T11:00:04.064Z,2.60
2018-05-16T11:02:32.958Z,3.20
2018-05-16T11:05:01.856Z,3.10
2018-05-16T11:07:30.749Z,2.57
2018-05-16T11:10:00.230Z,2.77
2018-05-16T11:12:29.342Z,2.93
2018-05-16T11:14:58.231Z,2.60
2018-05-16T11:17:27.123Z,2.60
2018-05-16T11:19:56.070Z,2.93
2018-05-16T11:22:24.956Z,2.67
2018-05-16T11:24:53.847Z,2.20
2018-05-16T11:27:22.743Z,3.00
2018-05-16T11:29:51.646Z,2.23
2018-05-16T11:32:20.535Z,3.40
2018-05-16T11:34:49.965Z,2.47
2018-05-16T11:37:18.868Z,2.37
2018-05-16T11:39:47.756Z,2.83
2018-05-16T11:42:16.699Z,2.73
2018-05-16T11:44:45.597Z,3.20
2018-05-16T11:47:14.518Z,2.50
2018-05-16T11:49:43.431Z,3.10
2018-05-16T11:52:12.802Z,2.70
2018-05-16T11:54:41.703Z,2.80
2018-05-16T11:57:10.598Z,2.53
2018-05-16T11:59:39.692Z,2.83
2018-05-16T12:02:08.584Z,3.13
2018-05-16T12:04:37.539Z,2.63
2018-05-16T12:07:06.424Z,2.73
2018-05-16T12:09:35.307Z,2.43
2018-05-16T12:12:04.205Z,2.33
2018-05-16T12:14:33.131Z,2.83
2018-05-16T12:17:02.167Z,3.27
2018-05-16T12:19:31.063Z,2.83
2018-05-16T12:21:59.955Z,3.03
2018-05-16T12:24:28.842Z,3.10
2018-05-16T12:26:58.114Z,3.37
2018-05-16T12:29:27.002Z,3.67
2018-05-16T12:31:55.888Z,2.80
2018-05-16T12:34:25.001Z,2.43
2018-05-16T12:36:53.896Z,2.83
2018-05-16T12:39:22.779Z,2.80
2018-05-16T12:41:51.669Z,2.80
2018-05-16T12:44:20.556Z,3.30
2018-05-16T12:46:49.443Z,2.63
2018-05-16T12:49:18.421Z,2.80
2018-05-16T12:51:47.428Z,2.47
2018-05-16T12:54:16.312Z,2.90
2018-05-16T12:56:45.207Z,3.60
2018-05-16T12:59:14.088Z,3.40
2018-05-16T13:01:42.979Z,3.50
2018-05-16T13:04:12.115Z,2.93
2018-05-16T13:06:41.009Z,2.77
2018-05-16T13:09:09.902Z,2.60
2018-05-16T13:11:39.359Z,2.60
2018-05-16T13:14:08.247Z,2.10
2018-05-16T13:16:37.141Z,2.90
2018-05-16T13:19:06.028Z,2.80
2018-05-16T13:21:35.029Z,2.73
2018-05-16T13:24:03.859Z,2.40
2018-05-16T13:26:32.747Z,2.70
2018-05-16T13:29:01.643Z,3.10
2018-05-16T13:31:30.910Z,2.63
2018-05-16T13:33:59.814Z,2.80
2018-05-16T13:36:28.708Z,2.37
2018-05-16T13:38:57.769Z,3.60
2018-05-16T13:41:26.650Z,2.67
2018-05-16T13:43:55.626Z,3.10
2018-05-16T13:46:24.537Z,2.90
2018-05-16T13:48:53.778Z,3.07
2018-05-16T13:51:22.663Z,2.53
2018-05-16T13:53:51.550Z,3.10
2018-05-16T13:56:20.475Z,3.23
2018-05-16T13:58:49.362Z,2.10
2018-05-16T14:01:18.261Z,2.83
2018-05-16T14:03:47.147Z,2.80
2018-05-16T14:06:16.027Z,2.53
2018-05-16T14:08:44.922Z,2.63
2018-05-16T14:11:13.811Z,3.03
2018-05-16T14:13:43.066Z,3.10
2018-05-16T14:16:11.960Z,3.23
2018-05-16T14:18:40.847Z,2.90
2018-05-16T14:21:09.950Z,2.67
2018-05-16T14:23:38.838Z,3.20
2018-05-16T14:26:07.843Z,2.67
2018-05-16T14:28:36.727Z,2.90
2018-05-16T14:31:05.611Z,3.27
2018-05-16T14:33:34.828Z,2.57
2018-05-16T14:36:03.759Z,3.03
2018-05-16T14:38:32.631Z,2.80
2018-05-16T14:41:01.522Z,2.43
2018-05-16T14:43:30.578Z,2.90
2018-05-16T14:45:59.467Z,2.50
2018-05-16T14:48:28.366Z,3.10
2018-05-16T14:50:57.450Z,5.17
2018-05-16T14:53:26.344Z,3.00
2018-05-16T14:55:55.235Z,3.07
2018-05-16T14:58:24.119Z,3.00
2018-05-16T15:00:53.006Z,3.57
2018-05-16T15:03:22.147Z,4.73
2018-05-16T15:05:51.033Z,3.97
2018-05-16T15:08:19.941Z,3.03
2018-05-16T15:10:48.831Z,4.80
2018-05-16T15:13:17.731Z,3.80
2018-05-16T15:15:46.778Z,3.60
2018-05-16T15:18:15.663Z,3.60
2018-05-16T15:20:44.870Z,3.97
2018-05-16T15:23:13.760Z,3.57
2018-05-16T15:25:42.657Z,3.90
2018-05-16T15:28:11.579Z,3.57
2018-05-16T15:30:40.467Z,4.10
2018-05-16T15:33:09.454Z,3.20
2018-05-16T15:35:38.276Z,3.57
2018-05-16T15:38:07.813Z,3.80
2018-05-16T15:40:36.706Z,4.17
2018-05-16T15:43:05.601Z,3.60
2018-05-16T15:45:34.494Z,3.97
2018-05-16T15:48:03.405Z,4.40
2018-05-16T15:50:32.302Z,4.43
2018-05-16T15:53:01.200Z,3.43
2018-05-16T15:55:30.319Z,3.93
2018-05-16T15:57:59.243Z,4.07
2018-05-16T16:00:28.312Z,4.47
2018-05-16T16:02:57.199Z,4.00
2018-05-16T16:05:26.086Z,3.80
2018-05-16T16:07:54.978Z,4.20
2018-05-16T16:10:23.867Z,4.57
2018-05-16T16:12:52.887Z,4.63
2018-05-16T16:15:21.779Z,3.23
2018-05-16T16:17:50.667Z,4.67
2018-05-16T16:20:19.570Z,4.53
2018-05-16T16:22:48.467Z,4.20
2018-05-16T16:25:17.363Z,4.30
2018-05-16T16:27:46.254Z,4.50
2018-05-16T16:30:15.591Z,4.50
2018-05-16T16:32:44.491Z,5.27
2018-05-16T16:35:13.386Z,4.10
2018-05-16T16:37:42.277Z,4.43
2018-05-16T16:40:11.172Z,4.70
2018-05-16T16:42:40.061Z,4.30
2018-05-16T16:45:08.954Z,3.60
2018-05-16T16:47:38.034Z,4.77
2018-05-16T16:50:06.934Z,4.80
2018-05-16T16:52:35.835Z,3.50
2018-05-16T16:55:04.728Z,4.90
2018-05-16T16:57:33.687Z,4.67
2018-05-16T17:00:02.601Z,4.50
2018-05-16T17:02:31.744Z,4.80
2018-05-16T17:05:00.667Z,4.73
2018-05-16T17:07:29.560Z,4.20
2018-05-16T17:09:58.454Z,4.80
2018-05-16T17:12:27.338Z,4.23
2018-05-16T17:14:56.238Z,4.90
2018-05-16T17:17:25.279Z,4.60
2018-05-16T17:19:54.192Z,5.47
2018-05-16T17:22:23.086Z,4.30
2018-05-16T17:24:51.999Z,4.30
2018-05-16T17:27:21.047Z,4.20
2018-05-16T17:29:50.159Z,4.50
2018-05-16T17:32:19.065Z,4.50
2018-05-16T17:34:47.959Z,5.10
2018-05-16T17:37:16.859Z,4.12
2018-05-16T17:39:45.752Z,5.03
2018-05-16T17:42:14.647Z,4.35
2018-05-16T17:44:43.543Z,4.25
2018-05-16T17:47:12.619Z,4.40
2018-05-16T17:49:41.515Z,4.93
2018-05-16T17:52:10.411Z,4.70
2018-05-16T17:54:39.322Z,4.32
2018-05-16T17:57:08.218Z,4.90
2018-05-16T17:59:37.272Z,4.35
2018-05-16T18:02:06.175Z,4.28
2018-05-16T18:04:35.070Z,4.70
2018-05-16T18:07:03.984Z,4.87
2018-05-16T18:09:32.933Z,6.43
2018-05-16T18:12:01.842Z,6.20
2018-05-16T18:14:36.629Z,5.00
2018-05-16T18:17:23.260Z,6.30
2018-05-16T18:19:52.217Z,8.70
2018-05-16T18:22:21.123Z,7.03
2018-05-16T18:24:50.015Z,5.57
2018-05-16T18:27:19.032Z,7.30
2018-05-16T18:29:47.926Z,7.03
2018-05-16T18:32:16.824Z,6.95
2018-05-16T18:34:45.715Z,6.95
2018-05-16T18:37:15.047Z,6.40
2018-05-16T18:39:44.178Z,6.55
2018-05-16T18:42:13.059Z,6.75
2018-05-16T18:44:41.955Z,7.15
2018-05-16T18:47:10.848Z,6.82
2018-05-16T18:49:39.735Z,7.32
2018-05-16T18:52:08.635Z,7.68
2018-05-16T18:54:37.579Z,6.65
2018-05-16T18:57:06.447Z,7.30
2018-05-16T18:59:35.393Z,6.70
2018-05-16T19:02:04.287Z,7.57
2018-05-16T19:04:33.183Z,6.70
2018-05-16T19:07:02.084Z,6.57
2018-05-16T19:09:30.970Z,6.97
2018-05-16T19:12:00.298Z,5.70
2018-05-16T19:14:29.431Z,6.78
2018-05-16T19:16:58.338Z,7.20
2018-05-16T19:19:27.230Z,7.25
2018-05-16T19:21:56.116Z,6.82
2018-05-16T19:24:25.013Z,8.65
2018-05-16T19:26:53.912Z,6.62
2018-05-16T19:29:23.131Z,7.60
2018-05-16T19:31:52.018Z,7.43
2018-05-16T19:34:20.912Z,7.18
2018-05-16T19:36:49.800Z,6.87
2018-05-16T19:39:18.687Z,6.35
2018-05-16T19:41:47.578Z,7.65
2018-05-16T19:44:16.488Z,6.95
2018-05-16T19:46:45.403Z,8.23
2018-05-16T19:49:14.291Z,8.38
2018-05-16T19:51:43.190Z,7.20
2018-05-16T19:54:12.420Z,8.65
2018-05-16T19:56:41.312Z,8.23
2018-05-16T19:59:10.203Z,8.25
2018-05-16T20:01:39.091Z,9.27
2018-05-16T20:04:08.414Z,7.93
2018-05-16T20:06:37.591Z,8.65
2018-05-16T20:09:06.533Z,8.57
2018-05-16T20:11:35.429Z,8.15
2018-05-16T20:14:04.356Z,8.02
2018-05-16T20:16:33.255Z,8.20
2018-05-16T20:19:02.168Z,8.43
2018-05-16T20:21:31.294Z,7.30
2018-05-16T20:24:00.209Z,8.85
2018-05-16T20:26:29.109Z,8.68
2018-05-16T20:28:58.007Z,11.38
2018-05-16T20:31:26.896Z,8.98
2018-05-16T20:33:56.306Z,8.43
2018-05-16T20:36:25.197Z,8.25
2018-05-16T20:38:54.098Z,9.27
2018-05-16T20:41:22.990Z,8.75
2018-05-16T20:43:51.884Z,9.88
2018-05-16T20:46:20.979Z,9.48
2018-05-16T20:48:49.866Z,8.38
2018-05-16T20:51:18.807Z,8.55
2018-05-16T20:53:47.698Z,9.40
2018-05-16T20:56:16.600Z,9.20
2018-05-16T20:58:45.516Z,8.57
2018-05-16T21:01:14.416Z,9.40
2018-05-16T21:03:43.426Z,9.95
2018-05-16T21:06:12.319Z,9.38
2018-05-16T21:08:41.223Z,8.63
2018-05-16T21:11:10.130Z,9.30
2018-05-16T21:13:39.057Z,8.90
2018-05-16T21:16:07.980Z,9.30
2018-05-16T21:18:36.882Z,11.10
2018-05-16T21:21:05.779Z,9.98
2018-05-16T21:23:34.690Z,8.95
2018-05-16T21:26:03.597Z,10.07
2018-05-16T21:28:32.940Z,10.80
2018-05-16T21:31:01.820Z,10.52
2018-05-16T21:33:30.706Z,9.25
2018-05-16T21:35:59.602Z,10.00
2018-05-16T21:38:28.706Z,10.40
2018-05-16T21:40:57.596Z,9.30
2018-05-16T21:43:26.495Z,9.90
2018-05-16T21:45:55.599Z,10.95
2018-05-16T21:48:24.496Z,9.70
2018-05-16T21:50:53.400Z,10.57
2018-05-16T21:53:22.292Z,9.95
2018-05-16T21:55:51.190Z,10.05
2018-05-16T21:58:20.089Z,10.43
2018-05-16T22:00:48.982Z,11.00
2018-05-16T22:03:17.921Z,11.70
2018-05-16T22:05:47.176Z,10.13
2018-05-16T22:08:16.080Z,9.75
2018-05-16T22:10:45.338Z,10.43
2018-05-16T22:13:14.234Z,9.93
2018-05-16T22:15:43.126Z,7.78
2018-05-16T22:18:12.015Z,8.50
2018-05-16T22:20:40.911Z,7.90
2018-05-16T22:23:09.802Z,7.60
2018-05-16T22:25:39.075Z,7.95
2018-05-16T22:28:07.962Z,6.72
2018-05-16T22:30:43.027Z,6.75
2018-05-16T22:33:18.648Z,6.78
2018-05-16T22:35:53.495Z,6.37
2018-05-16T22:38:28.058Z,6.75
2018-05-16T22:41:02.647Z,5.35
2018-05-16T22:43:31.535Z,6.78
2018-05-16T22:46:00.510Z,6.25
2018-05-16T22:48:29.399Z,5.28
2018-05-16T22:50:58.300Z,6.45
2018-05-16T22:53:27.382Z,5.00
2018-05-16T22:55:56.270Z,5.57
2018-05-16T22:58:25.159Z,4.80
2018-05-16T23:00:54.058Z,5.53
2018-05-16T23:03:22.958Z,4.45
2018-05-16T23:05:51.844Z,4.57
2018-05-16T23:08:20.754Z,4.97
2018-05-16T23:10:49.839Z,4.95
2018-05-16T23:13:18.734Z,4.30
2018-05-16T23:15:47.622Z,4.43
2018-05-16T23:18:16.510Z,4.60
2018-05-16T23:20:45.415Z,3.37
2018-05-16T23:23:14.527Z,4.07
2018-05-16T23:25:43.418Z,3.62
2018-05-16T23:28:12.653Z,3.53
2018-05-16T23:30:41.538Z,3.75
2018-05-16T23:33:10.466Z,3.10
2018-05-16T23:35:39.403Z,3.12
2018-05-16T23:38:08.287Z,4.37
2018-05-16T23:40:37.327Z,3.40
2018-05-16T23:43:06.227Z,3.42
2018-05-16T23:45:35.123Z,4.12
2018-05-16T23:48:04.009Z,3.50
2018-05-16T23:50:32.898Z,3.78
2018-05-16T23:53:02.036Z,2.60
2018-05-16T23:55:30.949Z,2.87
2018-05-16T23:57:59.840Z,2.55
